Time;durP1;ratioP1;P1;durP2;ratioP2;P2;SDS_P1;SDS_P2;PMS_P1;PMS_P2;Temp;Humidity;BMP_temperature;BMP_pressure;BME280_temperature;BME280_humidity;BME280_pressure;Samples;Min_cycle;Max_cycle;Signal;HPM_P1;HPM_P2
2022/08/14 00:00:09;;;;;;;7.43;7.13;;;23.00;1.00;;;;;;6258071;28;20238;-54
2022/08/14 00:03:21;;;;;;;7.70;7.20;;;23.00;1.00;;;;;;6283270;28;20248;-54
2022/08/14 00:06:32;;;;;;;7.80;7.50;;;22.90;1.00;;;;;;6271006;28;20234;-54
2022/08/14 00:09:39;;;;;;;8.40;7.70;;;22.90;1.00;;;;;;6257817;28;20289;-55
2022/08/14 00:13:01;;;;;;;7.97;7.37;;;22.90;1.00;;;;;;6258615;28;20230;-56
2022/08/14 00:16:13;;;;;;;8.00;7.40;;;22.80;1.00;;;;;;6275969;28;20286;-55
2022/08/14 00:19:36;;;;;;;8.50;8.03;;;22.80;1.00;;;;;;6276054;28;20256;-55
2022/08/14 00:22:40;;;;;;;8.43;7.97;;;22.80;1.00;;;;;;6258637;28;20245;-53
2022/08/14 00:25:59;;;;;;;8.33;7.83;;;22.80;1.00;;;;;;6258203;28;20234;-54
2022/08/14 00:29:10;;;;;;;8.37;7.70;;;22.80;1.00;;;;;;6249580;28;20604;-52
2022/08/14 00:32:13;;;;;;;7.97;7.57;;;22.80;1.00;;;;;;6258622;28;20233;-55
2022/08/14 00:35:36;;;;;;;8.10;7.60;;;22.70;1.00;;;;;;6283522;28;20291;-55
2022/08/14 00:39:00;;;;;;;7.67;7.07;;;22.70;1.00;;;;;;6283015;28;20243;-54
2022/08/14 00:42:04;;;;;;;8.00;7.60;;;22.70;1.00;;;;;;6266308;28;20253;-56
2022/08/14 00:45:10;;;;;;;8.30;7.80;;;22.60;1.00;;;;;;6269343;28;20229;-53
2022/08/14 00:48:17;;;;;;;8.03;7.43;;;22.60;1.00;;;;;;6283049;28;20692;-56
2022/08/14 00:51:38;;;;;;;7.83;7.43;;;22.50;1.00;;;;;;6264903;28;20662;-56
2022/08/14 00:54:45;;;;;;;7.77;7.37;;;22.50;1.00;;;;;;6257702;28;20230;-55
2022/08/14 00:58:29;;;;;;;8.13;7.77;;;22.50;1.00;;;;;;6258414;28;20324;-55
2022/08/14 01:01:13;;;;;;;8.40;8.00;;;22.50;1.00;;;;;;6278035;28;20240;-55
2022/08/14 01:04:18;;;;;;;8.20;7.67;;;22.40;1.00;;;;;;6280840;28;20229;-54
2022/08/14 01:07:42;;;;;;;8.17;7.50;;;22.30;1.00;;;;;;6258008;28;20428;-55
2022/08/14 01:11:00;;;;;;;7.93;7.43;;;22.30;1.00;;;;;;6262572;28;20318;-54
2022/08/14 01:14:05;;;;;;;8.67;7.87;;;22.30;1.00;;;;;;6270448;28;20249;-54
2022/08/14 01:21:10;;;;;;;8.17;7.73;;;22.20;1.00;;;;;;6280340;28;20653;-55
2022/08/14 01:24:16;;;;;;;9.30;8.80;;;22.10;1.00;;;;;;6257508;28;20724;-55
2022/08/14 01:27:36;;;;;;;8.83;8.33;;;22.20;1.00;;;;;;6261746;28;20740;-55
2022/08/14 01:30:59;;;;;;;9.20;8.60;;;22.20;1.00;;;;;;6261439;28;20691;-56
2022/08/14 01:34:07;;;;;;;9.40;8.70;;;22.20;1.00;;;;;;6276899;28;20222;-55
2022/08/14 01:37:30;;;;;;;8.53;8.03;;;22.20;1.00;;;;;;6281487;28;20269;-54
2022/08/14 01:40:39;;;;;;;7.97;7.47;;;22.10;1.00;;;;;;6273507;28;20245;-56
2022/08/14 01:43:47;;;;;;;8.87;8.27;;;22.20;1.00;;;;;;6286390;28;20744;-55
2022/08/14 01:47:00;;;;;;;9.13;8.60;;;22.20;1.00;;;;;;6282321;28;20310;-55
2022/08/14 01:50:10;;;;;;;9.57;9.07;;;22.20;1.00;;;;;;6262240;28;20312;-55
2022/08/14 01:53:16;;;;;;;9.23;8.70;;;22.20;1.00;;;;;;6262343;28;20252;-54
2022/08/14 01:56:22;;;;;;;9.67;8.97;;;22.30;1.00;;;;;;6260770;28;20241;-55
2022/08/14 01:59:31;;;;;;;9.73;8.90;;;22.30;1.00;;;;;;6261496;28;20652;-55
2022/08/14 02:02:41;;;;;;;8.37;7.97;;;22.30;1.00;;;;;;6264967;28;20327;-55
2022/08/14 02:05:48;;;;;;;8.40;8.00;;;22.40;1.00;;;;;;6281134;28;20654;-54
2022/08/14 02:08:51;;;;;;;8.87;8.27;;;22.40;1.00;;;;;;6286242;28;20278;-55
2022/08/14 02:11:59;;;;;;;8.47;8.03;;;22.40;1.00;;;;;;6281774;28;20709;-54
2022/08/14 02:15:08;;;;;;;8.23;7.80;;;22.40;1.00;;;;;;6283572;28;20709;-54
2022/08/14 02:18:11;;;;;;;8.50;8.00;;;22.40;1.00;;;;;;6285265;28;20304;-54
2022/08/14 02:21:17;;;;;;;8.63;8.20;;;22.40;1.00;;;;;;6285382;28;20237;-55
2022/08/14 02:24:28;;;;;;;8.53;8.03;;;22.40;1.00;;;;;;6273041;28;20241;-54
2022/08/14 02:27:44;;;;;;;8.50;8.10;;;22.40;1.00;;;;;;6284968;28;20237;-54
2022/08/14 02:31:07;;;;;;;9.77;8.90;;;22.40;1.00;;;;;;6285422;28;20238;-54
2022/08/14 02:34:17;;;;;;;8.83;8.43;;;22.40;1.00;;;;;;6283263;28;20847;-55
2022/08/14 02:37:27;;;;;;;9.13;8.53;;;22.40;1.00;;;;;;6284551;28;20230;-55
2022/08/14 02:40:50;;;;;;;8.80;8.20;;;22.40;1.00;;;;;;6284659;28;20647;-54
2022/08/14 02:43:54;;;;;;;8.27;7.80;;;22.40;1.00;;;;;;6274762;28;20313;-54
2022/08/14 02:47:03;;;;;;;9.10;8.50;;;22.30;1.00;;;;;;6279335;28;20323;-54
2022/08/14 02:50:19;;;;;;;9.30;8.60;;;22.40;1.00;;;;;;6279409;28;20299;-54
2022/08/14 02:53:29;;;;;;;9.30;8.70;;;22.40;1.00;;;;;;6264565;28;20319;-54
2022/08/14 02:56:37;;;;;;;8.37;7.97;;;22.40;1.00;;;;;;6259114;28;20253;-53
2022/08/14 03:00:02;;;;;;;8.87;8.37;;;22.40;1.00;;;;;;6258790;28;20409;-56
2022/08/14 03:03:08;;;;;;;8.97;8.47;;;22.40;1.00;;;;;;6267407;28;20230;-56
2022/08/14 03:06:13;;;;;;;9.27;8.80;;;22.40;1.00;;;;;;6283414;28;20236;-55
2022/08/14 03:09:22;;;;;;;9.07;8.53;;;22.40;1.00;;;;;;6259135;28;20616;-55
2022/08/14 03:12:25;;;;;;;8.77;8.37;;;22.40;1.00;;;;;;6259506;28;20815;-56
2022/08/14 03:15:37;;;;;;;8.93;8.33;;;22.40;1.00;;;;;;6279677;28;20241;-55
2022/08/14 03:18:44;;;;;;;8.97;8.37;;;22.40;1.00;;;;;;6267095;28;20233;-53
2022/08/14 03:21:47;;;;;;;9.13;8.37;;;22.40;1.00;;;;;;6283062;28;20762;-54
2022/08/14 03:24:54;;;;;;;9.80;9.30;;;22.40;1.00;;;;;;6283728;28;20268;-55
2022/08/14 03:27:59;;;;;;;9.50;9.00;;;22.40;1.00;;;;;;6261737;28;20246;-55
2022/08/14 03:31:10;;;;;;;10.70;9.87;;;22.40;1.00;;;;;;6257485;28;20274;-54
2022/08/14 03:34:38;;;;;;;9.50;8.90;;;22.40;1.00;;;;;;6280950;28;20636;-54
2022/08/14 03:37:55;;;;;;;10.00;9.30;;;22.30;1.00;;;;;;6283980;28;20229;-54
2022/08/14 03:41:19;;;;;;;9.97;9.37;;;22.30;1.00;;;;;;6282187;28;20245;-55
2022/08/14 03:44:25;;;;;;;10.43;9.40;;;22.30;1.00;;;;;;6284013;28;20264;-54
2022/08/14 03:47:49;;;;;;;9.63;8.87;;;22.30;1.00;;;;;;6281971;28;20237;-54
2022/08/14 03:51:00;;;;;;;9.87;9.10;;;22.30;1.00;;;;;;6279576;28;20294;-54
2022/08/14 03:54:07;;;;;;;9.40;8.87;;;22.30;1.00;;;;;;6283419;28;20235;-55
2022/08/14 03:57:12;;;;;;;11.00;10.30;;;22.30;1.00;;;;;;6284154;28;20248;-55
2022/08/14 04:00:16;;;;;;;10.47;9.60;;;22.30;1.00;;;;;;6281260;28;20488;-55
2022/08/14 04:03:40;;;;;;;11.33;10.40;;;22.30;1.00;;;;;;6284299;28;20606;-54
2022/08/14 04:06:43;;;;;;;12.17;11.33;;;22.30;1.00;;;;;;6276549;28;20370;-55
2022/08/14 04:09:51;;;;;;;11.53;10.73;;;22.30;1.00;;;;;;6282557;28;20304;-55
2022/08/14 04:12:58;;;;;;;10.43;9.67;;;22.40;1.00;;;;;;6284033;28;20765;-55
2022/08/14 04:16:09;;;;;;;10.57;9.97;;;22.40;1.00;;;;;;6276397;28;20237;-55
2022/08/14 04:19:22;;;;;;;11.07;10.33;;;22.40;1.00;;;;;;6284339;28;20233;-55
2022/08/14 04:22:25;;;;;;;10.97;10.17;;;22.30;1.00;;;;;;6283295;28;20267;-55
2022/08/14 04:25:30;;;;;;;10.43;9.77;;;22.40;1.00;;;;;;6281279;28;20719;-55
2022/08/14 04:28:35;;;;;;;10.77;9.93;;;22.30;1.00;;;;;;6283928;28;20229;-55
2022/08/14 04:31:58;;;;;;;10.10;9.37;;;22.30;1.00;;;;;;6283485;28;20260;-55
2022/08/14 04:35:23;;;;;;;10.23;9.40;;;22.30;1.00;;;;;;6281647;28;20238;-55
2022/08/14 04:45:39;;;;;;;9.90;9.33;;;22.40;1.00;;;;;;6287330;28;20312;-56
2022/08/14 04:48:42;;;;;;;10.27;9.57;;;22.40;1.00;;;;;;6278976;28;20718;-55
2022/08/14 04:51:54;;;;;;;9.47;8.93;;;22.40;1.00;;;;;;6282036;28;20229;-55
2022/08/14 04:54:58;;;;;;;11.30;10.60;;;22.40;1.00;;;;;;6287312;28;20290;-53
2022/08/14 04:58:04;;;;;;;11.17;10.33;;;22.50;1.00;;;;;;6283962;28;20458;-55
2022/08/14 05:01:11;;;;;;;10.67;9.83;;;22.60;1.00;;;;;;6287918;28;20361;-55
2022/08/14 05:04:23;;;;;;;11.20;10.20;;;22.60;1.00;;;;;;6288434;28;20233;-56
2022/08/14 05:07:27;;;;;;;10.57;9.87;;;22.70;1.00;;;;;;6287400;28;20241;-54
2022/08/14 05:10:52;;;;;;;10.57;9.77;;;22.80;1.00;;;;;;6282658;28;20241;-54
2022/08/14 05:13:56;;;;;;;10.23;9.63;;;22.90;1.00;;;;;;6285803;28;20363;-55
2022/08/14 05:17:20;;;;;;;9.87;9.33;;;23.00;1.00;;;;;;6286144;28;20237;-55
2022/08/14 05:20:24;;;;;;;10.60;9.83;;;23.10;1.00;;;;;;6287569;28;20308;-55
2022/08/14 05:23:48;;;;;;;11.03;10.10;;;23.20;1.00;;;;;;6280296;28;20751;-54
2022/08/14 05:26:51;;;;;;;10.07;9.57;;;23.20;1.00;;;;;;6287626;28;20764;-55
2022/08/14 05:29:55;;;;;;;11.03;10.23;;;23.40;1.00;;;;;;6287534;28;20260;-54
2022/08/14 05:33:00;;;;;;;11.40;10.53;;;23.50;1.00;;;;;;6287347;28;20310;-54
2022/08/14 05:36:05;;;;;;;10.93;10.00;;;23.60;1.00;;;;;;6287297;28;20740;-55
2022/08/14 05:39:20;;;;;;;10.70;10.10;;;23.70;1.00;;;;;;6286579;28;20294;-55
2022/08/14 05:42:23;;;;;;;10.40;9.60;;;23.70;1.00;;;;;;6282826;28;20372;-54
2022/08/14 05:45:34;;;;;;;9.97;9.37;;;23.80;1.00;;;;;;6281389;28;20230;-55
2022/08/14 05:48:39;;;;;;;9.80;9.30;;;24.00;1.00;;;;;;6285850;28;20612;-57
2022/08/14 05:51:45;;;;;;;10.47;9.67;;;24.20;1.00;;;;;;6286245;28;20242;-55
2022/08/14 05:54:50;;;;;;;11.20;10.47;;;24.40;1.00;;;;;;6284945;28;20386;-55
2022/08/14 05:57:55;;;;;;;11.53;10.83;;;24.60;1.00;;;;;;6286960;28;20241;-54
2022/08/14 06:01:01;;;;;;;11.67;10.87;;;24.90;1.00;;;;;;6269532;28;20241;-54
2022/08/14 06:04:07;;;;;;;12.10;11.27;;;25.10;1.00;;;;;;6286020;28;20233;-55
2022/08/14 06:07:14;;;;;;;12.30;11.20;;;25.30;1.00;;;;;;6283066;28;20221;-54
2022/08/14 06:10:18;;;;;;;10.93;10.03;;;25.40;1.00;;;;;;6285095;28;20709;-54
2022/08/14 06:13:22;;;;;;;11.33;10.57;;;25.60;1.00;;;;;;6286982;28;20233;-55
2022/08/14 06:16:33;;;;;;;11.37;10.60;;;25.90;1.00;;;;;;6286413;28;20722;-55
2022/08/14 06:19:38;;;;;;;11.77;10.87;;;26.00;1.00;;;;;;6281287;28;20246;-55
2022/08/14 06:22:43;;;;;;;11.47;10.80;;;26.20;1.00;;;;;;6283593;28;20256;-55
2022/08/14 06:25:48;;;;;;;11.40;10.60;;;26.30;1.00;;;;;;6286126;28;20241;-56
2022/08/14 06:28:55;;;;;;;12.17;11.27;;;26.50;1.00;;;;;;6285038;28;20241;-55
2022/08/14 06:31:59;;;;;;;11.50;10.73;;;26.50;1.00;;;;;;6286228;28;20260;-54
2022/08/14 06:35:22;;;;;;;11.53;10.73;;;26.60;1.00;;;;;;6278914;28;20257;-54
2022/08/14 06:38:25;;;;;;;11.53;10.53;;;26.70;1.00;;;;;;6284487;28;20249;-55
2022/08/14 06:41:29;;;;;;;11.77;10.97;;;26.80;1.00;;;;;;6285592;28;20248;-55
2022/08/14 06:44:52;;;;;;;11.80;10.83;;;26.90;1.00;;;;;;6271605;28;20233;-55
2022/08/14 06:47:55;;;;;;;12.07;11.37;;;26.90;1.00;;;;;;6285480;28;20229;-54
2022/08/14 06:51:00;;;;;;;11.27;10.57;;;26.90;1.00;;;;;;6277044;28;20682;-55
2022/08/14 06:54:03;;;;;;;11.17;10.33;;;26.80;1.00;;;;;;6281625;28;20568;-55
2022/08/14 06:57:12;;;;;;;11.53;10.73;;;26.80;1.00;;;;;;6285419;28;20604;-54
2022/08/14 07:00:18;;;;;;;12.40;11.40;;;26.80;1.00;;;;;;6277433;28;20295;-55
2022/08/14 07:06:50;;;;;;;12.17;11.13;;;27.00;1.00;;;;;;6283745;28;20738;-55
2022/08/14 07:09:57;;;;;;;12.13;11.23;;;27.00;1.00;;;;;;6277689;28;20233;-57
2022/08/14 07:13:01;;;;;;;11.23;10.53;;;27.10;1.00;;;;;;6252478;28;20225;-50
2022/08/14 07:16:07;;;;;;;11.03;10.10;;;27.20;1.00;;;;;;6284184;28;20225;-55
2022/08/14 07:19:09;;;;;;;11.53;10.83;;;27.10;1.00;;;;;;6283425;28;20237;-54
2022/08/14 07:22:12;;;;;;;12.73;11.43;;;27.20;1.00;;;;;;6285127;28;20222;-55
2022/08/14 07:25:22;;;;;;;10.73;9.93;;;27.20;1.00;;;;;;6283932;28;20233;-54
2022/08/14 07:28:37;;;;;;;10.40;9.80;;;27.30;1.00;;;;;;6284335;28;20450;-55
2022/08/14 07:31:45;;;;;;;11.90;11.07;;;27.30;1.00;;;;;;6279050;28;20229;-54
2022/08/14 07:34:48;;;;;;;10.93;10.33;;;27.40;1.00;;;;;;6284197;28;20315;-53
2022/08/14 07:37:52;;;;;;;10.07;9.57;;;27.50;1.00;;;;;;6278615;28;20273;-54
2022/08/14 07:40:55;;;;;;;10.93;10.13;;;27.40;1.00;;;;;;6283646;28;20241;-55
2022/08/14 07:44:02;;;;;;;11.40;10.40;;;27.50;1.00;;;;;;6283899;28;20240;-55
2022/08/14 07:47:25;;;;;;;10.63;9.90;;;27.60;1.00;;;;;;6281135;28;20630;-54
2022/08/14 07:50:28;;;;;;;10.03;9.43;;;27.70;1.00;;;;;;6283299;28;20241;-54
2022/08/14 07:53:36;;;;;;;10.70;10.10;;;27.80;1.00;;;;;;6283436;28;20260;-54
2022/08/14 07:56:42;;;;;;;11.23;10.50;;;27.90;1.00;;;;;;6274374;28;20240;-56
2022/08/14 07:59:52;;;;;;;10.80;9.80;;;27.90;1.00;;;;;;6281487;28;20783;-54
2022/08/14 08:02:55;;;;;;;11.03;10.07;;;27.90;1.00;;;;;;6284759;28;20773;-54
2022/08/14 08:06:02;;;;;;;10.40;9.90;;;28.00;1.00;;;;;;6284145;28;20233;-55
2022/08/14 08:09:12;;;;;;;10.80;9.97;;;27.90;1.00;;;;;;6276142;28;20617;-56
2022/08/14 08:12:17;;;;;;;10.40;9.50;;;27.90;1.00;;;;;;6283313;28;20230;-55
2022/08/14 08:15:22;;;;;;;11.07;10.27;;;28.00;1.00;;;;;;6282835;28;20323;-55
2022/08/14 08:18:27;;;;;;;9.57;9.07;;;28.10;1.00;;;;;;6277830;28;20256;-54
2022/08/14 08:21:31;;;;;;;10.43;9.30;;;28.20;1.00;;;;;;6282926;28;20241;-62
2022/08/14 08:24:37;;;;;;;11.17;10.23;;;28.30;1.00;;;;;;6283117;28;20290;-54
2022/08/14 08:27:41;;;;;;;10.10;9.33;;;28.30;1.00;;;;;;6274291;28;20276;-55
2022/08/14 08:30:50;;;;;;;10.10;9.20;;;28.30;1.00;;;;;;6270688;28;20233;-54
2022/08/14 08:33:54;;;;;;;10.07;9.60;;;28.40;1.00;;;;;;6278307;28;20233;-55
2022/08/14 08:36:58;;;;;;;9.40;8.77;;;28.50;1.00;;;;;;6282612;28;20254;-53
2022/08/14 08:40:09;;;;;;;9.70;9.20;;;28.60;1.00;;;;;;6275175;28;20694;-53
2022/08/14 08:43:24;;;;;;;9.77;9.07;;;28.70;1.00;;;;;;6281982;28;20234;-57
2022/08/14 08:46:29;;;;;;;8.60;8.20;;;28.80;1.00;;;;;;6278124;28;20684;-55
2022/08/14 08:49:42;;;;;;;9.47;8.63;;;28.90;1.00;;;;;;6283155;28;20241;-55
2022/08/14 08:53:04;;;;;;;10.17;9.20;;;29.00;1.00;;;;;;6277011;28;20265;-56
2022/08/14 08:56:07;;;;;;;9.53;8.93;;;29.00;1.00;;;;;;6283197;28;20253;-55
2022/08/14 08:59:24;;;;;;;9.80;9.00;;;28.90;1.00;;;;;;6278922;28;20695;-55
2022/08/14 09:02:34;;;;;;;9.07;8.30;;;29.00;1.00;;;;;;6282248;28;20237;-55
2022/08/14 09:05:48;;;;;;;9.07;8.47;;;28.90;1.00;;;;;;6283083;28;20312;-54
2022/08/14 09:08:55;;;;;;;8.70;8.00;;;28.90;1.00;;;;;;6274490;28;20605;-54
2022/08/14 09:12:01;;;;;;;9.23;8.43;;;28.90;1.00;;;;;;6282692;28;20614;-55
2022/08/14 09:15:06;;;;;;;8.57;8.05;;;29.00;1.00;;;;;;6280129;28;20229;-55
2022/08/14 09:18:18;;;;;;;7.82;7.43;;;29.20;1.00;;;;;;6277371;28;20230;-55
2022/08/14 09:21:24;;;;;;;8.40;7.82;;;29.20;1.00;;;;;;6282565;28;20252;-56
2022/08/14 09:24:33;;;;;;;7.03;6.72;;;29.30;1.00;;;;;;6281205;28;20391;-57
2022/08/14 09:27:45;;;;;;;6.50;6.18;;;29.50;1.00;;;;;;6282127;28;20232;-55
2022/08/14 09:30:52;;;;;;;6.07;5.80;;;29.70;1.00;;;;;;6284687;28;20311;-56
2022/08/14 09:34:14;;;;;;;6.60;6.07;;;29.80;1.00;;;;;;6280642;28;20706;-56
2022/08/14 09:37:48;;;;;;;6.30;5.83;;;30.10;1.00;;;;;;6277752;28;20233;-56
2022/08/14 09:41:03;;;;;;;9.68;5.88;;;30.10;1.00;;;;;;6286012;28;20230;-55
2022/08/14 09:44:17;;;;;;;6.50;6.07;;;30.20;1.00;;;;;;6281814;28;20780;-56
2022/08/14 09:47:41;;;;;;;8.75;4.97;;;30.10;1.00;;;;;;6285587;28;20333;-55
2022/08/14 09:50:48;;;;;;;6.32;5.80;;;30.10;1.00;;;;;;6286671;28;20372;-54
2022/08/14 09:54:01;;;;;;;6.85;6.00;;;30.30;1.00;;;;;;6286582;28;20320;-55
2022/08/14 09:57:26;;;;;;;7.15;6.03;;;30.40;1.00;;;;;;6284258;28;20233;-57
2022/08/14 10:00:43;;;;;;;6.57;5.85;;;30.60;1.00;;;;;;6284869;28;20234;-55
2022/08/14 10:03:51;;;;;;;5.15;4.80;;;30.70;1.00;;;;;;6283296;28;20391;-56
2022/08/14 10:06:57;;;;;;;6.28;5.68;;;30.90;1.00;;;;;;6284653;28;20237;-55
2022/08/14 10:10:01;;;;;;;5.82;5.38;;;31.00;1.00;;;;;;6285943;28;20244;-57
2022/08/14 10:13:25;;;;;;;5.80;5.22;;;30.90;1.00;;;;;;6285605;28;20630;-56
2022/08/14 10:16:42;;;;;;;6.07;5.60;;;30.80;1.00;;;;;;6282390;28;20244;-56
2022/08/14 10:19:48;;;;;;;5.47;4.65;;;30.70;1.00;;;;;;6277853;28;20248;-55
2022/08/14 10:22:54;;;;;;;5.65;5.13;;;30.80;1.00;;;;;;6285706;28;20819;-54
2022/08/14 10:26:18;;;;;;;5.10;4.80;;;30.90;1.00;;;;;;6275650;28;20233;-56
2022/08/14 10:29:32;;;;;;;5.60;5.22;;;31.10;1.00;;;;;;6283429;28;20335;-54
2022/08/14 10:32:44;;;;;;;4.40;4.05;;;31.20;1.00;;;;;;6283855;28;20315;-55
2022/08/14 10:35:54;;;;;;;4.93;4.63;;;31.40;1.00;;;;;;6286319;28;20280;-54
2022/08/14 10:39:00;;;;;;;8.32;4.95;;;31.60;1.00;;;;;;6280941;28;20226;-55
2022/08/14 10:42:06;;;;;;;5.15;4.75;;;31.70;1.00;;;;;;6280590;28;20293;-54
2022/08/14 10:45:22;;;;;;;5.65;5.15;;;31.70;1.00;;;;;;6284889;28;20874;-56
2022/08/14 10:48:26;;;;;;;5.40;5.00;;;31.70;1.00;;;;;;6285427;28;20861;-54
2022/08/14 10:51:39;;;;;;;4.85;4.75;;;31.80;1.00;;;;;;6274189;28;20525;-57
2022/08/14 10:54:47;;;;;;;5.80;5.10;;;31.70;1.00;;;;;;6284539;28;20695;-55
2022/08/14 10:57:58;;;;;;;6.03;5.13;;;31.70;1.00;;;;;;6279785;28;20294;-55
2022/08/14 11:01:04;;;;;;;4.90;4.50;;;31.60;1.00;;;;;;6281631;28;20614;-54
2022/08/14 11:04:19;;;;;;;5.13;4.88;;;31.60;1.00;;;;;;6284698;28;20323;-54
2022/08/14 11:07:28;;;;;;;5.88;5.45;;;31.60;1.00;;;;;;6284189;28;20283;-55
2022/08/14 11:10:44;;;;;;;5.07;4.70;;;31.70;1.00;;;;;;6279385;28;20245;-53
2022/08/14 11:13:49;;;;;;;6.45;4.90;;;31.50;1.00;;;;;;6280316;28;20226;-56
2022/08/14 11:16:53;;;;;;;5.43;5.13;;;31.50;1.00;;;;;;6283356;28;20229;-56
2022/08/14 11:20:00;;;;;;;6.18;5.70;;;31.40;1.00;;;;;;6276106;28;20861;-55
2022/08/14 11:23:07;;;;;;;5.82;5.60;;;31.40;1.00;;;;;;6284200;28;20231;-55
2022/08/14 11:26:14;;;;;;;5.70;5.20;;;31.50;1.00;;;;;;6283426;28;20733;-56
2022/08/14 11:29:20;;;;;;;5.68;5.20;;;31.50;1.00;;;;;;6280923;28;20253;-56
2022/08/14 11:32:26;;;;;;;5.18;4.88;;;31.70;1.00;;;;;;6282828;28;20241;-56
2022/08/14 11:35:31;;;;;;;6.20;5.65;;;31.80;1.00;;;;;;6283999;28;20244;-54
2022/08/14 11:38:46;;;;;;;6.13;5.60;;;31.70;1.00;;;;;;6274460;28;20230;-56
2022/08/14 11:41:51;;;;;;;4.70;4.50;;;31.80;1.00;;;;;;6283383;28;20240;-56
2022/08/14 11:44:59;;;;;;;7.93;5.57;;;31.80;1.00;;;;;;6281405;28;20237;-55
2022/08/14 11:48:15;;;;;;;5.45;4.97;;;31.70;1.00;;;;;;6279107;28;20372;-54
2022/08/14 11:51:38;;;;;;;5.70;5.15;;;31.80;1.00;;;;;;6275474;28;20244;-55
2022/08/14 11:54:59;;;;;;;9.10;5.28;;;31.70;1.00;;;;;;6274781;28;20321;-56
2022/08/14 11:58:09;;;;;;;5.45;4.72;;;31.90;1.00;;;;;;6276056;28;20319;-54
2022/08/14 12:01:14;;;;;;;5.20;5.00;;;31.90;1.00;;;;;;6279756;28;20242;-56
2022/08/14 12:04:20;;;;;;;5.57;5.28;;;32.10;1.00;;;;;;6282493;28;20682;-55
2022/08/14 12:07:35;;;;;;;5.45;5.10;;;32.20;1.00;;;;;;6270673;28;20253;-55
2022/08/14 12:10:45;;;;;;;4.80;4.60;;;32.20;1.00;;;;;;6281649;28;20596;-56
2022/08/14 12:13:49;;;;;;;6.20;5.68;;;32.20;1.00;;;;;;6281498;28;20329;-55
2022/08/14 12:17:00;;;;;;;6.10;5.60;;;32.30;1.00;;;;;;6278806;28;20482;-55
2022/08/14 12:20:07;;;;;;;5.57;5.28;;;32.30;1.00;;;;;;6268080;28;20617;-54
2022/08/14 12:23:22;;;;;;;5.65;5.22;;;32.20;1.00;;;;;;6279827;28;20375;-55
2022/08/14 12:26:26;;;;;;;5.70;5.40;;;32.10;1.00;;;;;;6282513;28;20714;-55
2022/08/14 12:29:52;;;;;;;5.60;5.10;;;32.10;1.00;;;;;;6282815;28;20237;-56
2022/08/14 12:32:56;;;;;;;6.60;5.93;;;32.30;1.00;;;;;;6279756;28;20822;-54
2022/08/14 12:36:01;;;;;;;5.03;4.93;;;32.40;1.00;;;;;;6283726;28;20374;-56
2022/08/14 12:39:18;;;;;;;5.55;5.28;;;32.50;1.00;;;;;;6277384;28;20443;-55
2022/08/14 12:42:34;;;;;;;5.32;4.90;;;32.60;1.00;;;;;;6278200;28;20241;-54
2022/08/14 12:45:49;;;;;;;6.60;5.78;;;32.50;1.00;;;;;;6279293;28;20230;-56
2022/08/14 12:48:52;;;;;;;5.47;5.03;;;32.60;1.00;;;;;;6283012;28;20229;-54
2022/08/14 12:51:57;;;;;;;5.50;5.10;;;32.50;1.00;;;;;;6282776;28;20233;-55
2022/08/14 12:55:04;;;;;;;5.47;5.18;;;32.50;1.00;;;;;;6282177;28;20232;-58
2022/08/14 12:58:09;;;;;;;5.68;5.45;;;32.30;1.00;;;;;;6279762;28;20733;-54
2022/08/14 13:01:35;;;;;;;5.70;5.22;;;32.10;1.00;;;;;;6281048;28;20259;-54
2022/08/14 13:04:57;;;;;;;6.47;4.88;;;31.90;1.00;;;;;;6275668;28;20465;-55
2022/08/14 13:08:05;;;;;;;5.88;5.30;;;31.90;1.00;;;;;;6287039;28;20259;-57
2022/08/14 13:11:36;;;;;;;5.18;4.88;;;32.00;1.00;;;;;;6286224;28;20729;-56
2022/08/14 13:14:47;;;;;;;5.50;5.20;;;32.20;1.00;;;;;;6278334;28;20681;-55
2022/08/14 13:17:55;;;;;;;5.25;5.00;;;32.40;1.00;;;;;;6287273;28;20457;-55
2022/08/14 13:21:04;;;;;;;5.85;5.47;;;32.50;1.00;;;;;;6281265;28;20464;-56
2022/08/14 13:24:11;;;;;;;6.07;5.57;;;32.60;1.00;;;;;;6287176;28;20720;-55
2022/08/14 13:27:17;;;;;;;5.68;5.18;;;32.60;1.00;;;;;;6283225;28;20233;-56
2022/08/14 13:30:23;;;;;;;5.28;4.85;;;32.70;1.00;;;;;;6284906;28;20428;-55
2022/08/14 13:33:28;;;;;;;4.82;4.65;;;32.80;1.00;;;;;;6287342;28;20399;-55
2022/08/14 13:36:34;;;;;;;5.10;4.70;;;32.70;1.00;;;;;;6286622;28;20233;-55
2022/08/14 13:39:57;;;;;;;5.35;4.53;;;32.90;1.00;;;;;;6279522;28;20229;-54
2022/08/14 13:43:02;;;;;;;4.47;4.18;;;32.90;1.00;;;;;;6287110;28;20249;-55
2022/08/14 13:46:07;;;;;;;4.93;4.57;;;32.90;1.00;;;;;;6279259;28;20316;-55
2022/08/14 13:49:14;;;;;;;4.72;4.22;;;33.00;1.00;;;;;;6285382;28;20313;-55
2022/08/14 13:52:20;;;;;;;4.72;4.38;;;33.20;1.00;;;;;;6287017;28;20590;-55
2022/08/14 13:55:45;;;;;;;4.18;4.00;;;33.30;1.00;;;;;;6278723;28;20240;-54
2022/08/14 13:58:58;;;;;;;3.85;3.75;;;33.30;1.00;;;;;;6286312;28;20340;-56
2022/08/14 14:02:05;;;;;;;4.78;4.47;;;33.20;1.00;;;;;;6269467;28;20570;-56
2022/08/14 14:05:17;;;;;;;6.05;4.70;;;33.30;1.00;;;;;;6282771;28;20232;-56
2022/08/14 14:08:24;;;;;;;5.85;4.30;;;33.20;1.00;;;;;;6285096;28;20249;-56
2022/08/14 14:11:47;;;;;;;4.20;3.97;;;33.20;1.00;;;;;;6279683;28;20587;-55
2022/08/14 14:14:55;;;;;;;4.95;4.55;;;33.30;1.00;;;;;;6287105;28;20649;-55
2022/08/14 14:18:01;;;;;;;5.43;4.43;;;33.10;1.00;;;;;;6285496;28;20237;-55
2022/08/14 14:21:05;;;;;;;4.43;3.92;;;33.10;1.00;;;;;;6281364;28;20328;-57
2022/08/14 14:24:11;;;;;;;4.43;4.22;;;33.10;1.00;;;;;;6283102;28;20610;-55
2022/08/14 14:27:19;;;;;;;4.97;4.72;;;33.10;1.00;;;;;;6282547;28;20236;-54
2022/08/14 14:30:46;;;;;;;4.32;4.03;;;33.10;1.00;;;;;;6277257;28;20241;-56
2022/08/14 14:33:57;;;;;;;4.53;4.10;;;33.10;1.00;;;;;;6284473;28;20261;-57
2022/08/14 14:37:03;;;;;;;4.30;3.92;;;33.10;1.00;;;;;;6282059;28;20229;-54
2022/08/14 14:40:11;;;;;;;3.83;3.67;;;33.00;1.00;;;;;;6284891;28;20238;-55
2022/08/14 14:43:43;;;;;;;5.53;4.28;;;32.90;1.00;;;;;;6284655;28;20265;-55
2022/08/14 14:46:49;;;;;;;4.80;4.20;;;32.90;1.00;;;;;;6276062;28;20244;-55
2022/08/14 14:49:56;;;;;;;4.57;4.28;;;33.00;1.00;;;;;;6285102;28;20237;-56
2022/08/14 14:53:02;;;;;;;4.93;4.07;;;33.00;1.00;;;;;;6284720;28;20847;-55
2022/08/14 14:56:15;;;;;;;3.40;3.40;;;33.10;1.00;;;;;;6279532;28;20222;-54
2022/08/14 14:59:38;;;;;;;4.65;3.70;;;33.30;1.00;;;;;;6275946;28;20234;-58
2022/08/14 15:02:42;;;;;;;5.45;3.50;;;33.50;1.00;;;;;;6284815;28;20233;-55
2022/08/14 15:05:46;;;;;;;3.90;3.35;;;33.60;1.00;;;;;;6280194;28;20295;-58
2022/08/14 15:08:51;;;;;;;4.10;3.80;;;33.50;1.00;;;;;;6282927;28;20229;-55
2022/08/14 15:11:58;;;;;;;6.20;4.07;;;33.50;1.00;;;;;;6284036;28;20680;-54
2022/08/14 15:15:01;;;;;;;4.63;4.10;;;33.40;1.00;;;;;;6277012;28;20239;-55
2022/08/14 15:18:11;;;;;;;4.38;4.00;;;33.40;1.00;;;;;;6278163;28;20704;-55
2022/08/14 15:21:35;;;;;;;3.80;3.63;;;33.40;1.00;;;;;;6282511;28;20245;-56
2022/08/14 15:24:42;;;;;;;3.90;3.58;;;33.30;1.00;;;;;;6267769;28;20329;-54
2022/08/14 15:27:49;;;;;;;3.85;3.58;;;33.30;1.00;;;;;;6283219;28;20233;-57
2022/08/14 15:30:56;;;;;;;4.13;3.97;;;33.20;1.00;;;;;;6282517;28;20300;-55
2022/08/14 15:34:13;;;;;;;3.50;3.40;;;33.10;1.00;;;;;;6281852;28;20320;-55
2022/08/14 15:37:36;;;;;;;4.18;3.95;;;33.10;1.00;;;;;;6283202;28;20266;-56
2022/08/14 15:40:46;;;;;;;4.20;3.28;;;33.00;1.00;;;;;;6276301;28;20625;-55
2022/08/14 15:43:58;;;;;;;3.47;3.47;;;33.00;1.00;;;;;;6281090;28;21767;-54
2022/08/14 15:47:05;;;;;;;4.05;3.80;;;33.00;1.00;;;;;;6283120;28;20737;-54
2022/08/14 15:50:09;;;;;;;3.70;3.50;;;33.00;1.00;;;;;;6280167;28;20234;-55
2022/08/14 15:53:13;;;;;;;4.13;3.83;;;33.00;1.00;;;;;;6283541;28;20244;-55
2022/08/14 15:56:18;;;;;;;4.50;4.10;;;32.90;1.00;;;;;;6283051;28;20229;-54
2022/08/14 16:03:01;;;;;;;3.65;3.55;;;32.70;1.00;;;;;;6278455;28;20230;-56
2022/08/14 16:06:05;;;;;;;3.67;3.35;;;32.70;1.00;;;;;;6283152;28;20235;-55
2022/08/14 16:09:13;;;;;;;3.97;3.78;;;32.60;1.00;;;;;;6282289;28;20240;-54
2022/08/14 16:12:17;;;;;;;4.18;3.78;;;32.50;1.00;;;;;;6283986;28;20239;-55
2022/08/14 16:15:23;;;;;;;3.85;3.60;;;32.40;1.00;;;;;;6279956;28;20245;-53
2022/08/14 16:18:26;;;;;;;6.88;4.57;;;32.30;1.00;;;;;;6280460;28;20239;-55
2022/08/14 16:21:34;;;;;;;6.43;4.10;;;32.20;1.00;;;;;;6276074;28;20351;-56
2022/08/14 16:24:41;;;;;;;4.65;4.50;;;32.10;1.00;;;;;;6274826;28;20274;-54
2022/08/14 16:28:07;;;;;;;4.32;4.10;;;31.90;1.00;;;;;;6270680;28;20229;-56
2022/08/14 16:31:10;;;;;;;4.32;3.78;;;31.80;1.00;;;;;;6275284;28;20233;-53
2022/08/14 16:34:13;;;;;;;4.60;4.40;;;31.70;1.00;;;;;;6283089;28;20273;-55
2022/08/14 16:37:40;;;;;;;5.22;4.82;;;31.70;1.00;;;;;;6280649;28;20707;-54
2022/08/14 16:40:45;;;;;;;5.20;4.90;;;31.50;1.00;;;;;;6280563;28;20233;-55
2022/08/14 16:43:52;;;;;;;4.90;4.80;;;31.40;1.00;;;;;;6288567;28;20310;-57
2022/08/14 16:46:55;;;;;;;4.88;4.78;;;31.30;1.00;;;;;;6260393;28;20283;-53
2022/08/14 16:49:59;;;;;;;5.18;4.88;;;31.10;1.00;;;;;;6285472;28;20225;-54
2022/08/14 16:53:11;;;;;;;5.45;5.00;;;31.10;1.00;;;;;;6287212;28;20233;-54